Time;durP1;ratioP1;P1;durP2;ratioP2;P2;SDS_P1;SDS_P2;PMS_P1;PMS_P2;Temp;Humidity;BMP_temperature;BMP_pressure;BME280_temperature;BME280_humidity;BME280_pressure;Samples;Min_cycle;Max_cycle;Signal;HPM_P1;HPM_P2
2023/09/12 00:00:39;;;;;;;14.00;9.07;;;19.10;99.90;;;;;;5025959;28;20195;-61
2023/09/12 00:03:05;;;;;;;14.50;10.57;;;19.10;99.90;;;;;;5009971;28;20041;-61
2023/09/12 00:05:31;;;;;;;14.93;9.52;;;19.10;99.90;;;;;;5009816;28;20092;-61
2023/09/12 00:07:56;;;;;;;15.57;10.20;;;19.10;99.90;;;;;;5009902;28;20629;-61
2023/09/12 00:10:22;;;;;;;17.40;10.68;;;19.10;99.90;;;;;;5022428;28;20471;-61
2023/09/12 00:12:47;;;;;;;16.67;10.48;;;19.00;99.90;;;;;;5029498;28;20526;-61
2023/09/12 00:15:13;;;;;;;11.25;9.38;;;19.00;99.90;;;;;;5029576;28;20026;-61
2023/09/12 00:17:38;;;;;;;15.43;10.95;;;19.00;99.90;;;;;;5025552;28;20029;-61
2023/09/12 00:20:06;;;;;;;18.42;11.10;;;19.00;99.90;;;;;;5020874;28;20055;-61
2023/09/12 00:22:32;;;;;;;16.40;10.20;;;19.00;99.90;;;;;;5029389;28;20429;-61
2023/09/12 00:24:57;;;;;;;16.90;10.43;;;18.90;99.90;;;;;;5029435;28;20018;-61
2023/09/12 00:27:23;;;;;;;15.40;10.45;;;19.00;99.90;;;;;;5029554;28;20060;-60
2023/09/12 00:29:48;;;;;;;16.65;10.73;;;19.00;99.90;;;;;;5029391;28;20483;-61
2023/09/12 00:32:14;;;;;;;14.95;10.57;;;18.90;99.90;;;;;;5029398;28;20029;-60
2023/09/12 00:34:39;;;;;;;14.35;11.10;;;19.00;99.90;;;;;;5019539;28;20030;-61
2023/09/12 00:37:05;;;;;;;15.05;10.25;;;19.00;99.90;;;;;;5029116;28;20030;-61
2023/09/12 00:39:30;;;;;;;14.27;10.02;;;19.00;99.90;;;;;;5028897;28;20095;-61
2023/09/12 00:41:56;;;;;;;15.25;10.60;;;18.90;99.90;;;;;;5028947;28;20029;-60
2023/09/12 00:44:21;;;;;;;12.50;10.13;;;18.90;99.90;;;;;;5029073;28;20157;-60
2023/09/12 00:46:49;;;;;;;11.07;9.48;;;18.90;99.90;;;;;;5029288;28;20072;-60
2023/09/12 00:49:16;;;;;;;14.15;10.70;;;18.90;99.90;;;;;;5023933;28;20029;-60
2023/09/12 00:51:43;;;;;;;12.02;9.90;;;18.90;99.90;;;;;;5025503;28;20401;-61
2023/09/12 00:54:09;;;;;;;15.88;10.55;;;18.80;99.90;;;;;;5028929;28;20025;-61
2023/09/12 00:56:35;;;;;;;12.60;9.40;;;18.80;99.90;;;;;;5029190;28;20021;-61
2023/09/12 00:59:02;;;;;;;15.50;11.07;;;18.80;99.90;;;;;;5044403;28;20025;-60
2023/09/12 01:01:27;;;;;;;12.55;9.73;;;18.80;99.90;;;;;;5028613;28;20476;-61
2023/09/12 01:03:54;;;;;;;16.73;10.88;;;18.80;99.90;;;;;;5028971;28;20040;-60
2023/09/12 01:06:23;;;;;;;15.32;10.65;;;18.80;99.90;;;;;;5027220;28;20510;-60
2023/09/12 01:08:48;;;;;;;17.02;10.88;;;18.70;99.90;;;;;;5026368;28;20036;-60
2023/09/12 01:11:14;;;;;;;15.50;9.95;;;18.70;99.90;;;;;;5028551;28;20117;-60
2023/09/12 01:13:39;;;;;;;20.42;11.80;;;18.70;99.90;;;;;;5043996;28;20447;-60
2023/09/12 01:16:05;;;;;;;25.27;13.35;;;18.70;99.90;;;;;;5028793;28;20022;-60
2023/09/12 01:18:31;;;;;;;24.63;12.98;;;18.90;99.90;;;;;;5028933;28;20387;-60
2023/09/12 01:21:16;;;;;;;18.70;12.48;;;19.00;99.90;;;;;;5028636;28;20045;-59
2023/09/12 01:24:16;;;;;;;17.95;12.45;;;19.10;99.90;;;;;;5045490;28;20277;-60
2023/09/12 01:26:55;;;;;;;21.80;12.20;;;19.30;99.90;;;;;;5029238;28;20024;-60
2023/09/12 01:29:22;;;;;;;19.48;11.80;;;19.20;99.90;;;;;;5032448;28;20067;-59
2023/09/12 01:31:49;;;;;;;17.38;12.10;;;19.40;99.90;;;;;;5030362;28;20029;-60
2023/09/12 01:34:14;;;;;;;17.85;12.02;;;19.40;99.90;;;;;;5012320;28;20022;-59
2023/09/12 01:36:40;;;;;;;15.23;10.85;;;19.40;99.90;;;;;;5012655;28;20113;-60
2023/09/12 01:39:06;;;;;;;32.50;13.32;;;19.40;99.90;;;;;;5012451;28;20033;-60
2023/09/12 01:41:36;;;;;;;15.02;12.25;;;19.40;99.90;;;;;;5016836;28;20025;-60
2023/09/12 01:44:02;;;;;;;19.37;12.77;;;19.50;99.90;;;;;;5032220;28;20044;-59
2023/09/12 01:46:29;;;;;;;15.38;11.88;;;19.50;99.90;;;;;;5032024;28;20295;-60
2023/09/12 01:48:56;;;;;;;19.10;12.18;;;19.50;99.90;;;;;;5032053;28;20025;-60
2023/09/12 01:51:23;;;;;;;16.55;11.38;;;19.40;99.90;;;;;;5025996;28;20598;-60
2023/09/12 01:53:50;;;;;;;17.95;11.95;;;19.40;99.90;;;;;;5015439;28;20106;-60
2023/09/12 01:56:17;;;;;;;18.63;11.73;;;19.40;99.90;;;;;;5032028;28;20108;-60
2023/09/12 01:58:43;;;;;;;16.42;12.68;;;19.40;99.90;;;;;;5030981;28;20025;-60
2023/09/12 02:01:09;;;;;;;20.02;12.02;;;19.40;99.90;;;;;;5023310;28;20394;-61
2023/09/12 02:03:34;;;;;;;17.80;11.88;;;19.30;99.90;;;;;;5031813;28;20490;-61
2023/09/12 02:06:00;;;;;;;18.75;11.70;;;19.30;99.90;;;;;;5031924;28;20033;-61
2023/09/12 02:08:25;;;;;;;16.42;11.50;;;19.30;99.90;;;;;;5032516;28;20025;-62
2023/09/12 02:10:51;;;;;;;20.27;11.90;;;19.20;99.90;;;;;;5031386;28;20017;-60
2023/09/12 02:13:16;;;;;;;16.13;12.13;;;19.30;99.90;;;;;;5030323;28;20024;-60
2023/09/12 02:15:42;;;;;;;22.60;13.93;;;19.30;99.90;;;;;;5031845;28;20076;-60
2023/09/12 02:18:07;;;;;;;23.58;14.07;;;19.30;99.90;;;;;;5025880;28;20100;-60
2023/09/12 02:20:37;;;;;;;21.58;14.85;;;19.30;99.90;;;;;;5031318;28;20107;-61
2023/09/12 02:23:03;;;;;;;25.45;15.63;;;19.20;99.90;;;;;;5031953;28;20250;-60
2023/09/12 02:25:28;;;;;;;21.90;13.60;;;19.20;99.90;;;;;;5031610;28;20040;-60
2023/09/12 02:27:54;;;;;;;37.42;16.35;;;19.20;99.90;;;;;;5031473;28;20470;-60
2023/09/12 02:30:20;;;;;;;24.23;15.85;;;19.20;99.90;;;;;;5031212;28;20033;-60
2023/09/12 02:32:45;;;;;;;25.35;15.07;;;19.20;99.90;;;;;;5031277;28;20132;-60
2023/09/12 02:35:11;;;;;;;26.42;16.13;;;19.20;99.90;;;;;;5028911;28;20052;-60
2023/09/12 02:37:36;;;;;;;24.40;15.63;;;19.10;99.90;;;;;;5031483;28;20429;-60
2023/09/12 02:40:05;;;;;;;23.52;15.15;;;19.10;99.90;;;;;;5030814;28;20052;-60
2023/09/12 02:42:30;;;;;;;24.88;15.60;;;19.10;99.90;;;;;;5031275;28;20021;-60
2023/09/12 02:44:56;;;;;;;24.13;14.88;;;19.00;99.90;;;;;;5030996;28;20307;-59
2023/09/12 02:47:21;;;;;;;24.40;15.05;;;19.00;99.90;;;;;;5046240;28;20104;-60
2023/09/12 02:49:47;;;;;;;26.55;16.30;;;18.90;99.90;;;;;;5029292;28;20463;-60
2023/09/12 02:52:12;;;;;;;19.90;14.88;;;19.00;99.90;;;;;;5027432;28;20037;-59
2023/09/12 02:54:38;;;;;;;28.05;15.38;;;18.90;99.90;;;;;;5030995;28;20022;-59
2023/09/12 02:57:04;;;;;;;23.80;16.05;;;18.90;99.90;;;;;;5031167;28;20029;-60
2023/09/12 02:59:30;;;;;;;24.80;16.75;;;18.80;99.90;;;;;;5030580;28;20033;-60
2023/09/12 03:01:56;;;;;;;21.77;14.65;;;18.80;99.90;;;;;;5030619;28;20471;-60
2023/09/12 03:04:21;;;;;;;16.88;13.93;;;18.90;99.90;;;;;;5030875;28;20074;-60
2023/09/12 03:06:47;;;;;;;20.52;14.98;;;18.80;99.90;;;;;;5030515;28;20017;-60
2023/09/12 03:09:14;;;;;;;21.02;15.57;;;18.70;99.90;;;;;;5029760;28;20017;-59
2023/09/12 03:11:39;;;;;;;26.20;16.73;;;18.70;99.90;;;;;;5022064;28;20056;-59
2023/09/12 03:14:05;;;;;;;30.85;16.75;;;18.70;99.90;;;;;;5026523;28;20535;-59
2023/09/12 03:16:30;;;;;;;21.55;15.93;;;18.70;99.90;;;;;;5030654;28;20467;-60
2023/09/12 03:18:56;;;;;;;21.95;14.55;;;18.70;99.90;;;;;;5030416;28;20018;-60
2023/09/12 03:21:21;;;;;;;19.90;14.70;;;18.60;99.90;;;;;;5030047;28;20033;-60
2023/09/12 03:23:47;;;;;;;22.88;14.82;;;18.50;99.90;;;;;;5030704;28;20033;-60
2023/09/12 03:26:12;;;;;;;21.77;14.48;;;18.40;99.90;;;;;;5045803;28;20190;-59
2023/09/12 03:28:38;;;;;;;20.08;14.02;;;18.50;99.90;;;;;;5028606;28;20107;-59
2023/09/12 03:31:08;;;;;;;27.08;15.70;;;18.50;99.90;;;;;;5029708;28;20029;-59
2023/09/12 03:33:34;;;;;;;21.48;14.68;;;18.50;99.90;;;;;;5028300;28;20017;-59
2023/09/12 03:35:59;;;;;;;21.15;14.63;;;18.40;99.90;;;;;;5030097;28;20104;-60
2023/09/12 03:38:25;;;;;;;23.13;14.80;;;18.40;99.90;;;;;;5030069;28;20479;-60
2023/09/12 03:40:50;;;;;;;24.02;16.95;;;18.50;99.90;;;;;;5029542;28;20398;-60
2023/09/12 03:43:16;;;;;;;30.40;18.63;;;18.40;99.90;;;;;;5028562;28;20063;-60
2023/09/12 03:45:41;;;;;;;30.08;16.77;;;18.40;99.90;;;;;;5026915;28;20038;-60
2023/09/12 03:48:07;;;;;;;28.95;17.55;;;18.50;99.90;;;;;;5026070;28;20034;-60
2023/09/12 03:50:32;;;;;;;36.53;18.45;;;18.50;99.90;;;;;;5022495;28;20025;-60
2023/09/12 03:52:58;;;;;;;23.85;16.85;;;18.40;99.90;;;;;;5029600;28;20070;-60
2023/09/12 03:55:23;;;;;;;23.52;16.83;;;18.40;99.90;;;;;;5029762;28;20394;-60
2023/09/12 03:57:49;;;;;;;34.70;18.83;;;18.40;99.90;;;;;;5029798;28;20028;-60
2023/09/12 04:00:15;;;;;;;31.33;17.63;;;18.40;99.90;;;;;;5029406;28;20064;-61
2023/09/12 04:02:40;;;;;;;27.58;16.73;;;18.40;99.90;;;;;;5023023;28;20441;-60
2023/09/12 04:05:06;;;;;;;33.72;18.98;;;18.40;99.90;;;;;;5027959;28;20088;-61
2023/09/12 04:07:32;;;;;;;29.92;17.58;;;18.40;99.90;;;;;;5029672;28;20051;-60
2023/09/12 04:09:57;;;;;;;23.95;16.33;;;18.40;99.90;;;;;;5027653;28;20017;-60
2023/09/12 04:12:23;;;;;;;18.10;15.55;;;18.40;99.90;;;;;;5029751;28;20026;-60
2023/09/12 04:14:52;;;;;;;31.60;17.65;;;18.40;99.90;;;;;;5029586;28;20479;-59
2023/09/12 04:17:18;;;;;;;23.55;16.63;;;18.30;99.90;;;;;;5030283;28;20026;-60
2023/09/12 04:19:43;;;;;;;23.48;16.65;;;18.20;99.90;;;;;;5027986;28;20037;-60
2023/09/12 04:22:09;;;;;;;33.58;20.10;;;18.20;99.90;;;;;;5023551;28;20033;-60
2023/09/12 04:24:34;;;;;;;25.85;18.73;;;18.20;99.90;;;;;;5029424;28;20017;-60
2023/09/12 04:27:00;;;;;;;33.65;19.73;;;18.20;99.90;;;;;;5029227;28;20021;-59
2023/09/12 04:29:27;;;;;;;34.97;21.23;;;18.20;99.90;;;;;;5021269;28;20069;-60
2023/09/12 04:31:58;;;;;;;30.45;19.70;;;18.20;99.90;;;;;;5029104;28;20575;-60
2023/09/12 04:34:24;;;;;;;29.67;20.08;;;18.20;99.90;;;;;;5029640;28;20044;-60
2023/09/12 04:36:49;;;;;;;27.50;19.30;;;18.30;99.90;;;;;;5029215;28;20022;-60
2023/09/12 04:39:15;;;;;;;32.35;20.42;;;18.20;99.90;;;;;;5023763;28;20033;-60
2023/09/12 04:41:40;;;;;;;26.02;21.02;;;18.20;99.90;;;;;;5025624;28;20025;-59
2023/09/12 04:44:06;;;;;;;25.40;18.95;;;18.20;99.90;;;;;;5029219;28;20406;-59
2023/09/12 04:46:31;;;;;;;29.27;20.27;;;18.20;99.90;;;;;;5029119;28;20040;-59
2023/09/12 04:48:57;;;;;;;25.08;20.05;;;18.20;99.90;;;;;;5028671;28;20029;-60
2023/09/12 04:51:22;;;;;;;32.88;20.58;;;18.20;99.90;;;;;;5028733;28;20029;-59
2023/09/12 04:53:51;;;;;;;30.58;21.67;;;18.20;99.90;;;;;;5028352;28;20079;-59
2023/09/12 04:56:17;;;;;;;31.40;23.05;;;18.20;99.90;;;;;;5020236;28;20025;-59
2023/09/12 04:58:42;;;;;;;29.90;20.48;;;18.30;99.90;;;;;;5030707;28;20460;-59
2023/09/12 05:01:09;;;;;;;29.75;21.70;;;18.30;99.90;;;;;;5026028;28;20037;-58
2023/09/12 05:03:34;;;;;;;30.08;21.92;;;18.40;99.90;;;;;;5025456;28;20029;-59
2023/09/12 05:06:00;;;;;;;26.38;19.30;;;18.30;99.90;;;;;;5048090;28;20044;-58
2023/09/12 05:08:26;;;;;;;35.85;21.85;;;18.40;99.90;;;;;;5047657;28;20761;-57
2023/09/12 05:10:52;;;;;;;25.10;20.98;;;18.30;99.90;;;;;;5024124;28;20033;-58
2023/09/12 05:13:17;;;;;;;27.85;18.60;;;18.40;99.90;;;;;;5025777;28;20399;-58
2023/09/12 05:15:44;;;;;;;27.45;18.75;;;18.40;99.90;;;;;;5033017;28;20564;-57
2023/09/12 05:18:10;;;;;;;25.60;19.38;;;18.30;99.90;;;;;;5044360;28;20032;-58
2023/09/12 05:20:36;;;;;;;25.75;18.95;;;18.30;99.90;;;;;;5032055;28;20071;-58
2023/09/12 05:23:01;;;;;;;23.65;18.30;;;18.30;99.90;;;;;;5046239;28;20037;-59
2023/09/12 05:25:28;;;;;;;23.50;17.30;;;18.40;99.90;;;;;;5024699;28;20416;-59
2023/09/12 05:27:54;;;;;;;20.88;17.48;;;18.30;99.90;;;;;;5019270;28;20096;-59
2023/09/12 05:30:19;;;;;;;24.67;17.90;;;18.40;99.90;;;;;;5028939;28;20704;-58
2023/09/12 05:32:45;;;;;;;24.33;17.38;;;18.40;99.90;;;;;;5026618;28;20045;-60
2023/09/12 05:35:10;;;;;;;23.30;17.88;;;18.50;99.90;;;;;;5031044;28;20017;-60
2023/09/12 05:37:36;;;;;;;34.22;22.38;;;18.60;99.90;;;;;;5032026;28;20044;-59
2023/09/12 05:40:02;;;;;;;22.95;18.27;;;18.60;99.90;;;;;;5031652;28;20120;-59
2023/09/12 05:42:28;;;;;;;23.50;18.05;;;18.70;99.90;;;;;;5030831;28;20043;-58
2023/09/12 05:44:53;;;;;;;22.95;17.20;;;18.90;99.90;;;;;;5031842;28;20025;-58
2023/09/12 05:47:20;;;;;;;21.77;16.92;;;19.00;99.90;;;;;;5046422;28;20156;-58
2023/09/12 05:49:45;;;;;;;23.73;16.85;;;19.10;99.90;;;;;;5025935;28;20028;-60
2023/09/12 05:52:11;;;;;;;17.17;14.60;;;19.20;99.90;;;;;;5032085;28;20025;-58
2023/09/12 05:54:37;;;;;;;20.27;15.27;;;19.40;99.90;;;;;;5032209;28;20025;-59
2023/09/12 05:57:03;;;;;;;15.32;13.55;;;19.50;99.90;;;;;;5031874;28;20021;-59
2023/09/12 05:59:29;;;;;;;18.63;13.68;;;19.70;99.90;;;;;;5031729;28;20542;-59
2023/09/12 06:01:55;;;;;;;16.80;13.00;;;19.70;99.90;;;;;;5031830;28;20100;-59
2023/09/12 06:04:21;;;;;;;16.13;11.43;;;19.90;99.90;;;;;;5031897;28;20018;-59
2023/09/12 06:06:47;;;;;;;14.68;11.98;;;19.90;99.90;;;;;;5043586;28;20068;-59
2023/09/12 06:09:12;;;;;;;16.45;11.90;;;20.00;99.90;;;;;;5031250;28;20029;-59
2023/09/12 06:11:38;;;;;;;11.90;10.18;;;20.10;99.90;;;;;;5031469;28;20402;-59
2023/09/12 06:14:03;;;;;;;13.93;11.48;;;20.20;99.90;;;;;;5031735;28;20049;-59
2023/09/12 06:16:29;;;;;;;14.30;11.38;;;20.30;99.90;;;;;;5030402;28;20474;-60
2023/09/12 06:18:55;;;;;;;12.77;9.88;;;20.30;99.90;;;;;;5031645;28;20021;-59
2023/09/12 06:21:21;;;;;;;14.23;10.60;;;20.40;99.90;;;;;;5031475;28;20048;-59
2023/09/12 06:24:13;;;;;;;11.48;9.27;;;20.40;99.90;;;;;;5023852;28;20045;-59
2023/09/12 06:26:39;;;;;;;10.80;8.85;;;20.40;99.90;;;;;;5031643;28;20111;-59
2023/09/12 06:29:05;;;;;;;10.27;8.80;;;20.50;99.90;;;;;;5031381;28;20109;-59
2023/09/12 06:31:31;;;;;;;10.18;8.48;;;20.50;99.90;;;;;;5031114;28;20101;-60
2023/09/12 06:33:57;;;;;;;9.60;8.60;;;20.60;99.90;;;;;;5034826;28;20129;-59
2023/09/12 06:36:29;;;;;;;10.48;8.65;;;20.60;99.90;;;;;;5022386;28;20114;-59
2023/09/12 06:38:58;;;;;;;9.23;8.07;;;20.60;99.90;;;;;;5041863;28;20029;-59
2023/09/12 06:41:24;;;;;;;13.18;10.77;;;20.60;99.90;;;;;;5027453;28;20033;-60
2023/09/12 06:43:50;;;;;;;12.40;9.80;;;20.60;99.90;;;;;;5031800;28;20029;-60
2023/09/12 06:46:18;;;;;;;11.65;9.90;;;20.60;99.90;;;;;;5032001;28;20152;-60
2023/09/12 06:48:45;;;;;;;11.05;9.27;;;20.50;99.90;;;;;;5031070;28;20077;-59
2023/09/12 06:51:11;;;;;;;12.95;10.15;;;20.50;99.90;;;;;;5024331;28;20025;-60
2023/09/12 06:53:39;;;;;;;15.13;9.55;;;20.50;99.90;;;;;;5021325;28;20043;-59
2023/09/12 06:56:05;;;;;;;12.80;10.48;;;20.40;99.90;;;;;;5027157;28;20030;-59
2023/09/12 06:58:31;;;;;;;16.27;10.98;;;20.40;99.90;;;;;;5017020;28;20021;-60
2023/09/12 07:01:02;;;;;;;17.85;11.25;;;20.30;99.90;;;;;;5030799;28;20036;-59
2023/09/12 07:03:28;;;;;;;19.13;12.43;;;20.30;99.90;;;;;;5029154;28;20116;-59
2023/09/12 07:05:53;;;;;;;16.27;11.82;;;20.20;99.90;;;;;;5026704;28;20022;-59
2023/09/12 07:08:19;;;;;;;18.42;13.43;;;20.10;99.90;;;;;;5022960;28;20076;-59
2023/09/12 07:10:48;;;;;;;15.80;11.68;;;20.10;99.90;;;;;;5026567;28;20410;-59
2023/09/12 07:13:13;;;;;;;17.05;12.18;;;20.00;99.90;;;;;;5023509;28;20398;-60
2023/09/12 07:15:39;;;;;;;17.77;12.55;;;20.00;99.90;;;;;;5041072;28;20022;-59
2023/09/12 07:18:06;;;;;;;17.77;12.30;;;19.90;99.90;;;;;;5024736;28;20466;-59
2023/09/12 07:20:32;;;;;;;16.98;11.88;;;19.80;99.90;;;;;;5027202;28;20536;-59
2023/09/12 07:22:58;;;;;;;12.23;10.93;;;19.70;99.90;;;;;;5029225;28;20044;-59
2023/09/12 07:25:23;;;;;;;14.85;11.07;;;19.60;99.90;;;;;;5024299;28;20546;-58
2023/09/12 07:27:50;;;;;;;13.70;10.45;;;19.50;99.90;;;;;;5029653;28;20332;-58
2023/09/12 07:30:16;;;;;;;15.98;10.32;;;19.30;99.90;;;;;;5021193;28;20053;-59
2023/09/12 07:32:41;;;;;;;14.63;11.07;;;19.20;99.90;;;;;;5021411;28;20032;-59
2023/09/12 07:35:07;;;;;;;12.77;9.90;;;19.10;99.90;;;;;;5023565;28;20029;-60
2023/09/12 07:37:33;;;;;;;12.57;9.52;;;18.90;99.90;;;;;;5030128;28;20056;-59
2023/09/12 07:39:58;;;;;;;11.25;9.27;;;18.80;99.90;;;;;;5029909;28;20590;-60
2023/09/12 07:42:24;;;;;;;14.60;9.45;;;18.70;99.90;;;;;;5045567;28;20620;-60
2023/09/12 07:44:50;;;;;;;10.20;8.50;;;18.60;99.90;;;;;;5030087;28;20033;-59
2023/09/12 07:47:16;;;;;;;11.93;9.65;;;18.50;99.90;;;;;;5043759;28;20029;-59
2023/09/12 07:49:41;;;;;;;13.90;9.93;;;18.40;99.90;;;;;;5026232;28;20071;-60
2023/09/12 07:52:07;;;;;;;13.98;10.38;;;18.40;99.90;;;;;;5025548;28;20029;-59
2023/09/12 07:54:33;;;;;;;12.10;10.13;;;18.40;99.90;;;;;;5025865;28;20335;-59
2023/09/12 07:56:58;;;;;;;11.32;10.02;;;18.40;99.90;;;;;;5023653;28;20029;-59
2023/09/12 07:59:24;;;;;;;13.80;10.60;;;18.40;99.90;;;;;;5028715;28;20021;-59
2023/09/12 08:01:51;;;;;;;18.38;10.85;;;18.50;99.90;;;;;;5028265;28;20013;-56
2023/09/12 08:04:17;;;;;;;16.50;11.70;;;18.50;99.90;;;;;;5029825;28;20457;-57
2023/09/12 08:06:42;;;;;;;14.60;11.23;;;18.60;99.90;;;;;;5029914;28;20100;-57
2023/09/12 08:09:09;;;;;;;13.02;10.90;;;18.60;99.90;;;;;;5024496;28;20033;-57
2023/09/12 08:11:35;;;;;;;16.98;11.80;;;18.70;99.90;;;;;;5029349;28;20136;-56
2023/09/12 08:14:01;;;;;;;13.80;12.02;;;18.80;99.90;;;;;;5016206;28;20460;-56
2023/09/12 08:16:26;;;;;;;16.67;12.27;;;18.90;99.90;;;;;;5029042;28;20025;-56
2023/09/12 08:18:52;;;;;;;15.10;12.40;;;19.00;99.90;;;;;;5026391;28;20037;-56
2023/09/12 08:21:17;;;;;;;13.77;11.25;;;19.00;99.90;;;;;;5022712;28;20033;-56
2023/09/12 08:23:43;;;;;;;15.93;12.20;;;19.20;99.90;;;;;;5027989;28;20060;-56
2023/09/12 08:26:09;;;;;;;16.88;11.40;;;19.20;99.90;;;;;;5023559;28;20598;-57
2023/09/12 08:28:34;;;;;;;18.13;12.05;;;19.20;99.90;;;;;;5020518;28;20431;-56
2023/09/12 08:31:00;;;;;;;14.57;11.13;;;19.30;99.90;;;;;;5019664;28;20061;-57
2023/09/12 08:33:25;;;;;;;18.38;11.07;;;19.40;99.90;;;;;;5022365;28;20033;-56
2023/09/12 08:35:51;;;;;;;14.80;10.73;;;19.40;99.90;;;;;;5021614;28;20026;-57
2023/09/12 08:38:17;;;;;;;15.35;9.32;;;19.30;99.90;;;;;;5016986;28;20057;-57
2023/09/12 08:40:49;;;;;;;19.58;9.88;;;19.30;99.90;;;;;;5017441;28;20486;-56
2023/09/12 08:43:15;;;;;;;11.73;8.88;;;19.30;99.90;;;;;;5020016;28;20033;-57
2023/09/12 08:45:43;;;;;;;13.02;9.50;;;19.20;99.90;;;;;;5023165;28;20036;-56
2023/09/12 08:48:10;;;;;;;13.45;9.65;;;19.30;99.90;;;;;;5017336;28;20033;-56
2023/09/12 08:50:36;;;;;;;10.55;9.43;;;19.30;99.90;;;;;;5015960;28;20161;-56
2023/09/12 08:53:03;;;;;;;12.00;9.57;;;19.50;99.90;;;;;;5024976;28;20117;-57
2023/09/12 08:55:29;;;;;;;11.48;9.75;;;19.50;99.90;;;;;;5027418;28;20070;-57
2023/09/12 08:57:55;;;;;;;11.82;9.95;;;19.60;99.90;;;;;;5025384;28;20029;-57
2023/09/12 09:00:23;;;;;;;9.60;8.55;;;19.70;99.90;;;;;;5019888;28;20029;-57
2023/09/12 09:02:50;;;;;;;11.55;9.68;;;19.80;99.90;;;;;;5028746;28;20014;-57
2023/09/12 09:05:17;;;;;;;14.65;10.07;;;19.90;99.90;;;;;;5028898;28;20021;-57
2023/09/12 09:07:43;;;;;;;12.48;9.75;;;19.90;99.90;;;;;;5022703;28;20478;-57
2023/09/12 09:10:19;;;;;;;11.00;9.05;;;20.00;99.90;;;;;;5028032;28;20032;-57
2023/09/12 09:12:46;;;;;;;12.23;9.82;;;20.00;99.90;;;;;;5043845;28;20025;-56
2023/09/12 09:15:28;;;;;;;11.98;9.77;;;20.00;99.90;;;;;;5027596;28;20029;-56
2023/09/12 09:17:56;;;;;;;14.32;9.55;;;20.10;99.90;;;;;;5023241;28;20394;-56
2023/09/12 09:20:48;;;;;;;11.32;8.73;;;20.10;99.90;;;;;;5023573;28;20022;-57
2023/09/12 09:23:14;;;;;;;12.95;8.68;;;20.20;99.90;;;;;;5028314;28;20041;-57
2023/09/12 09:25:42;;;;;;;12.02;8.85;;;20.20;99.90;;;;;;5028291;28;20033;-56
2023/09/12 09:28:19;;;;;;;13.80;8.93;;;20.30;99.90;;;;;;5028228;28;20121;-56
2023/09/12 09:30:46;;;;;;;13.25;8.95;;;20.40;99.90;;;;;;5027745;28;20494;-56
2023/09/12 09:33:13;;;;;;;8.20;6.97;;;20.50;99.90;;;;;;5028247;28;20029;-57
2023/09/12 09:35:41;;;;;;;6.78;6.07;;;20.70;99.90;;;;;;5023102;28;20029;-57
2023/09/12 09:38:08;;;;;;;8.70;6.43;;;21.00;99.90;;;;;;5028069;28;20061;-57
2023/09/12 09:40:35;;;;;;;9.90;6.45;;;21.30;99.90;;;;;;5027542;28;20028;-57
2023/09/12 09:43:03;;;;;;;7.05;5.60;;;21.50;99.90;;;;;;5023367;28;20030;-57
2023/09/12 09:45:29;;;;;;;6.07;5.00;;;21.70;99.90;;;;;;5042020;28;20017;-57
2023/09/12 09:48:07;;;;;;;5.15;4.60;;;22.90;99.90;;;;;;5031906;28;20161;-57
2023/09/12 09:50:38;;;;;;;5.47;4.32;;;24.70;99.90;;;;;;5029753;28;20171;-56
2023/09/12 09:53:08;;;;;;;4.63;4.18;;;26.50;99.90;;;;;;5023954;28;20037;-55
2023/09/12 09:55:34;;;;;;;4.97;3.43;;;27.70;99.90;;;;;;5026586;28;20014;-56
2023/09/12 09:57:59;;;;;;;3.28;2.97;;;28.90;99.90;;;;;;5030972;28;20026;-56
2023/09/12 10:00:25;;;;;;;5.50;2.60;;;29.70;99.90;;;;;;5024410;28;20025;-56
2023/09/12 10:02:52;;;;;;;5.25;3.10;;;30.40;99.90;;;;;;5023313;28;20021;-56
2023/09/12 10:05:18;;;;;;;3.85;3.00;;;31.50;95.90;;;;;;5031310;28;20048;-57
2023/09/12 10:07:50;;;;;;;3.72;3.15;;;31.50;94.80;;;;;;5022576;28;20088;-56
2023/09/12 10:10:18;;;;;;;6.43;3.17;;;30.90;93.50;;;;;;5030971;28;20382;-56
2023/09/12 10:12:55;;;;;;;3.38;3.08;;;30.90;93.90;;;;;;5031340;28;20018;-57
2023/09/12 10:15:22;;;;;;;3.08;2.78;;;31.50;92.80;;;;;;5022005;28;20040;-57
2023/09/12 10:18:03;;;;;;;3.47;2.88;;;31.70;93.00;;;;;;5029145;28;20017;-57
2023/09/12 10:20:48;;;;;;;3.20;2.90;;;31.00;92.40;;;;;;5020850;28;20099;-57
2023/09/12 10:23:37;;;;;;;3.92;3.22;;;30.40;92.70;;;;;;5017823;28;20021;-57
2023/09/12 10:26:03;;;;;;;3.15;2.83;;;30.60;93.90;;;;;;5025050;28;20022;-57
2023/09/12 10:28:29;;;;;;;3.85;2.85;;;31.40;92.90;;;;;;5023231;28;20040;-61
2023/09/12 10:30:57;;;;;;;4.80;2.92;;;31.70;91.20;;;;;;5018363;28;20026;-61
2023/09/12 10:33:23;;;;;;;2.83;2.53;;;31.90;90.80;;;;;;5021956;28;20030;-63
2023/09/12 10:35:50;;;;;;;4.75;2.65;;;32.10;90.80;;;;;;5029465;28;20325;-61
2023/09/12 10:38:18;;;;;;;5.88;3.38;;;31.70;90.60;;;;;;5024264;28;20240;-61
2023/09/12 10:40:45;;;;;;;5.18;3.15;;;30.60;91.60;;;;;;5023003;28;20116;-61
2023/09/12 10:43:13;;;;;;;4.40;3.38;;;29.80;92.00;;;;;;5029283;28;20021;-61
2023/09/12 10:45:39;;;;;;;4.82;3.45;;;29.20;92.90;;;;;;5029867;28;20385;-60
2023/09/12 10:48:05;;;;;;;3.47;2.75;;;29.20;92.80;;;;;;5029891;28;20028;-60
2023/09/12 10:50:31;;;;;;;3.00;2.80;;;29.10;92.70;;;;;;5027881;28;20034;-60
2023/09/12 10:53:15;;;;;;;3.28;2.70;;;28.70;92.50;;;;;;5029809;28;20045;-60
2023/09/12 10:55:41;;;;;;;3.00;2.70;;;28.50;93.60;;;;;;5028920;28;20029;-61
2023/09/12 10:58:10;;;;;;;4.18;3.28;;;28.10;95.30;;;;;;5025256;28;20452;-61
2023/09/12 11:00:38;;;;;;;4.43;3.47;;;28.60;94.30;;;;;;5030396;28;20045;-60
2023/09/12 11:03:28;;;;;;;5.20;2.92;;;28.50;93.90;;;;;;5023411;28;20052;-60
2023/09/12 11:05:55;;;;;;;4.70;3.05;;;27.90;94.00;;;;;;5028713;28;20061;-60
2023/09/12 11:08:20;;;;;;;3.55;3.15;;;28.60;93.90;;;;;;5030064;28;20489;-60
2023/09/12 11:11:22;;;;;;;3.38;3.00;;;28.80;94.70;;;;;;5030212;28;20033;-60
2023/09/12 11:14:03;;;;;;;4.65;3.13;;;28.70;93.70;;;;;;5023111;28;20280;-60
2023/09/12 11:16:28;;;;;;;6.10;3.30;;;28.30;94.50;;;;;;5018918;28;20017;-60
2023/09/12 11:19:16;;;;;;;3.42;3.13;;;28.10;94.90;;;;;;5020453;28;20022;-60
2023/09/12 11:21:44;;;;;;;4.25;3.13;;;27.70;94.10;;;;;;5025126;28;20079;-60
2023/09/12 11:24:09;;;;;;;3.72;2.92;;;27.40;94.20;;;;;;5022510;28;20025;-60
2023/09/12 11:26:35;;;;;;;4.15;3.40;;;26.90;94.50;;;;;;5019359;28;20673;-60
2023/09/12 11:29:13;;;;;;;4.82;4.00;;;26.50;96.00;;;;;;5026653;28;20045;-61
2023/09/12 11:31:42;;;;;;;3.95;3.55;;;26.10;96.90;;;;;;5024485;28;20112;-60
2023/09/12 11:34:10;;;;;;;3.92;3.63;;;25.80;97.30;;;;;;5023044;28;20029;-60
2023/09/12 11:36:42;;;;;;;3.80;3.40;;;25.80;98.70;;;;;;5025247;28;20051;-61
2023/09/12 11:39:34;;;;;;;3.78;3.47;;;25.90;96.90;;;;;;5027827;28;20033;-60
2023/09/12 11:42:01;;;;;;;3.78;3.45;;;26.10;96.90;;;;;;5019979;28;20037;-60
2023/09/12 11:44:28;;;;;;;4.20;3.60;;;26.80;96.50;;;;;;5023375;28;20029;-59
2023/09/12 11:46:54;;;;;;;5.22;3.65;;;26.90;95.30;;;;;;5030739;28;20029;-59
2023/09/12 11:49:20;;;;;;;4.40;3.05;;;26.90;94.80;;;;;;5014537;28;20080;-59
2023/09/12 11:51:55;;;;;;;3.88;3.17;;;26.90;95.90;;;;;;5028355;28;20434;-59
2023/09/12 11:54:25;;;;;;;4.35;2.92;;;26.90;95.50;;;;;;5026097;28;20033;-59
2023/09/12 11:56:56;;;;;;;3.35;3.05;;;27.00;95.80;;;;;;5021956;28;20017;-60
2023/09/12 11:59:23;;;;;;;3.30;3.00;;;27.10;95.60;;;;;;5028354;28;20030;-60
2023/09/12 12:01:49;;;;;;;5.53;3.90;;;27.10;95.60;;;;;;5029458;28;20156;-60
2023/09/12 12:04:14;;;;;;;3.78;3.30;;;27.00;96.20;;;;;;5028229;28;20104;-60
2023/09/12 12:06:41;;;;;;;3.72;3.42;;;26.90;94.60;;;;;;5019599;28;20103;-60
2023/09/12 12:09:06;;;;;;;3.33;2.85;;;26.70;95.40;;;;;;5029552;28;20025;-61
2023/09/12 12:11:32;;;;;;;3.78;3.47;;;26.20;95.10;;;;;;5023220;28;20040;-61
2023/09/12 12:14:08;;;;;;;3.25;3.03;;;26.10;95.80;;;;;;5029850;28;20025;-60
2023/09/12 12:16:33;;;;;;;3.60;3.25;;;25.90;96.00;;;;;;5029561;28;20029;-60
2023/09/12 12:18:59;;;;;;;4.82;3.53;;;25.60;97.10;;;;;;5029637;28;20473;-60
2023/09/12 12:21:25;;;;;;;5.65;3.65;;;25.40;97.60;;;;;;5029082;28;20080;-60
2023/09/12 12:24:00;;;;;;;8.02;4.22;;;25.20;98.10;;;;;;5029445;28;20068;-60
2023/09/12 12:26:29;;;;;;;6.90;4.93;;;25.10;98.80;;;;;;5029605;28;20025;-60
2023/09/12 12:28:54;;;;;;;5.30;4.32;;;24.90;99.00;;;;;;5019553;28;20083;-60
2023/09/12 12:31:21;;;;;;;5.97;4.70;;;24.90;99.50;;;;;;5016385;28;20029;-60
2023/09/12 12:33:53;;;;;;;5.20;4.55;;;24.70;99.50;;;;;;5015988;28;20022;-59